sensor_id;sensor_type;location;lat;lon;timestamp;temperature;humidity
5280;DHT22;2663;53.588;10.010;2023-04-03T00:00:31;4.00;99.90
5280;DHT22;2663;53.588;10.010;2023-04-03T00:02:58;4.00;99.90
5280;DHT22;2663;53.588;10.010;2023-04-03T00:05:25;4.10;99.90
5280;DHT22;2663;53.588;10.010;2023-04-03T00:07:51;4.20;99.90
5280;DHT22;2663;53.588;10.010;2023-04-03T00:10:18;4.00;99.90
5280;DHT22;2663;53.588;10.010;2023-04-03T00:12:45;3.90;99.90
5280;DHT22;2663;53.588;10.010;2023-04-03T00:15:12;3.90;99.90
5280;DHT22;2663;53.588;10.010;2023-04-03T00:17:39;3.80;99.90
5280;DHT22;2663;53.588;10.010;2023-04-03T00:20:06;3.80;99.90
5280;DHT22;2663;53.588;10.010;2023-04-03T00:22:33;3.80;99.90
5280;DHT22;2663;53.588;10.010;2023-04-03T00:24:59;3.80;99.90
5280;DHT22;2663;53.588;10.010;2023-04-03T00:27:26;3.90;99.90
5280;DHT22;2663;53.588;10.010;2023-04-03T00:29:53;3.80;99.90
5280;DHT22;2663;53.588;10.010;2023-04-03T00:32:19;3.90;99.90
5280;DHT22;2663;53.588;10.010;2023-04-03T00:34:46;4.00;99.90
5280;DHT22;2663;53.588;10.010;2023-04-03T00:37:13;4.00;99.90
5280;DHT22;2663;53.588;10.010;2023-04-03T00:39:39;4.10;99.90
5280;DHT22;2663;53.588;10.010;2023-04-03T00:42:06;4.00;99.90
5280;DHT22;2663;53.588;10.010;2023-04-03T00:47:00;3.90;99.90
5280;DHT22;2663;53.588;10.010;2023-04-03T00:49:28;3.80;99.90
5280;DHT22;2663;53.588;10.010;2023-04-03T00:51:55;3.80;99.90
5280;DHT22;2663;53.588;10.010;2023-04-03T00:54:22;3.80;99.90
5280;DHT22;2663;53.588;10.010;2023-04-03T00:56:51;3.80;99.90
5280;DHT22;2663;53.588;10.010;2023-04-03T00:59:23;3.70;99.90
5280;DHT22;2663;53.588;10.010;2023-04-03T01:01:56;3.60;99.90
5280;DHT22;2663;53.588;10.010;2023-04-03T01:04:31;3.60;99.90
5280;DHT22;2663;53.588;10.010;2023-04-03T01:07:03;3.50;99.90
5280;DHT22;2663;53.588;10.010;2023-04-03T01:09:31;3.50;99.90
5280;DHT22;2663;53.588;10.010;2023-04-03T01:12:25;3.50;99.90
5280;DHT22;2663;53.588;10.010;2023-04-03T01:14:57;3.60;99.90
5280;DHT22;2663;53.588;10.010;2023-04-03T01:17:28;3.50;99.90
5280;DHT22;2663;53.588;10.010;2023-04-03T01:25:55;3.50;99.90
5280;DHT22;2663;53.588;10.010;2023-04-03T01:28:31;3.40;99.90
5280;DHT22;2663;53.588;10.010;2023-04-03T01:33:39;3.30;99.90
5280;DHT22;2663;53.588;10.010;2023-04-03T01:36:06;3.30;99.90
5280;DHT22;2663;53.588;10.010;2023-04-03T01:38:33;3.30;99.90
5280;DHT22;2663;53.588;10.010;2023-04-03T01:40:59;3.40;99.90
5280;DHT22;2663;53.588;10.010;2023-04-03T01:43:26;3.30;99.90
5280;DHT22;2663;53.588;10.010;2023-04-03T01:45:53;3.40;99.90
5280;DHT22;2663;53.588;10.010;2023-04-03T01:48:21;3.50;99.90
5280;DHT22;2663;53.588;10.010;2023-04-03T01:50:48;3.50;99.90
5280;DHT22;2663;53.588;10.010;2023-04-03T01:53:15;3.60;99.90
5280;DHT22;2663;53.588;10.010;2023-04-03T01:55:42;3.60;99.90
5280;DHT22;2663;53.588;10.010;2023-04-03T01:58:08;3.70;99.90
5280;DHT22;2663;53.588;10.010;2023-04-03T02:00:35;3.80;99.90
5280;DHT22;2663;53.588;10.010;2023-04-03T02:03:03;3.70;99.90
5280;DHT22;2663;53.588;10.010;2023-04-03T02:05:29;3.70;99.90
5280;DHT22;2663;53.588;10.010;2023-04-03T02:07:56;3.80;99.90
5280;DHT22;2663;53.588;10.010;2023-04-03T02:10:23;3.70;99.90
5280;DHT22;2663;53.588;10.010;2023-04-03T02:12:49;3.80;99.90
5280;DHT22;2663;53.588;10.010;2023-04-03T02:15:17;4.00;99.90
5280;DHT22;2663;53.588;10.010;2023-04-03T02:17:44;3.80;99.90
5280;DHT22;2663;53.588;10.010;2023-04-03T02:20:11;3.80;99.90
5280;DHT22;2663;53.588;10.010;2023-04-03T02:22:38;3.80;99.90
5280;DHT22;2663;53.588;10.010;2023-04-03T02:25:05;3.90;99.90
5280;DHT22;2663;53.588;10.010;2023-04-03T02:27:31;4.00;99.90
5280;DHT22;2663;53.588;10.010;2023-04-03T02:29:58;3.90;99.90
5280;DHT22;2663;53.588;10.010;2023-04-03T02:32:25;3.90;99.90
5280;DHT22;2663;53.588;10.010;2023-04-03T02:34:51;3.80;99.90
5280;DHT22;2663;53.588;10.010;2023-04-03T02:37:18;3.90;99.90
5280;DHT22;2663;53.588;10.010;2023-04-03T02:39:45;3.70;99.90
5280;DHT22;2663;53.588;10.010;2023-04-03T02:42:11;3.60;99.90
5280;DHT22;2663;53.588;10.010;2023-04-03T02:44:38;3.70;99.90
5280;DHT22;2663;53.588;10.010;2023-04-03T02:47:05;3.70;99.90
5280;DHT22;2663;53.588;10.010;2023-04-03T02:49:32;3.70;99.90
5280;DHT22;2663;53.588;10.010;2023-04-03T02:51:58;3.60;99.90
5280;DHT22;2663;53.588;10.010;2023-04-03T02:54:25;3.70;99.90
5280;DHT22;2663;53.588;10.010;2023-04-03T02:56:55;3.70;99.90
5280;DHT22;2663;53.588;10.010;2023-04-03T02:59:21;3.60;99.90
5280;DHT22;2663;53.588;10.010;2023-04-03T03:01:48;3.20;99.90
5280;DHT22;2663;53.588;10.010;2023-04-03T03:04:15;3.70;99.90
5280;DHT22;2663;53.588;10.010;2023-04-03T03:06:41;3.40;99.90
5280;DHT22;2663;53.588;10.010;2023-04-03T03:09:10;3.60;99.90
5280;DHT22;2663;53.588;10.010;2023-04-03T03:11:37;3.50;99.90
5280;DHT22;2663;53.588;10.010;2023-04-03T03:14:03;3.40;99.90
5280;DHT22;2663;53.588;10.010;2023-04-03T03:16:30;3.40;99.90
5280;DHT22;2663;53.588;10.010;2023-04-03T03:18:57;3.50;99.90
5280;DHT22;2663;53.588;10.010;2023-04-03T03:21:24;3.60;99.90
5280;DHT22;2663;53.588;10.010;2023-04-03T03:23:51;3.60;99.90
5280;DHT22;2663;53.588;10.010;2023-04-03T03:26:17;3.60;99.90
5280;DHT22;2663;53.588;10.010;2023-04-03T03:28:44;3.70;99.90
5280;DHT22;2663;53.588;10.010;2023-04-03T03:31:11;3.40;99.90
5280;DHT22;2663;53.588;10.010;2023-04-03T03:33:38;3.30;99.90
5280;DHT22;2663;53.588;10.010;2023-04-03T03:36:05;3.40;99.90
5280;DHT22;2663;53.588;10.010;2023-04-03T03:38:32;3.30;99.90
5280;DHT22;2663;53.588;10.010;2023-04-03T03:40:59;3.40;99.90
5280;DHT22;2663;53.588;10.010;2023-04-03T03:43:26;3.30;99.90
5280;DHT22;2663;53.588;10.010;2023-04-03T03:45:53;3.20;99.90
5280;DHT22;2663;53.588;10.010;2023-04-03T03:48:20;3.10;99.90
5280;DHT22;2663;53.588;10.010;2023-04-03T03:50:47;3.00;99.90
5280;DHT22;2663;53.588;10.010;2023-04-03T03:53:14;3.10;99.90
5280;DHT22;2663;53.588;10.010;2023-04-03T03:55:42;2.90;99.90
5280;DHT22;2663;53.588;10.010;2023-04-03T03:58:08;4.60;99.90
5280;DHT22;2663;53.588;10.010;2023-04-03T04:00:35;2.90;99.90
5280;DHT22;2663;53.588;10.010;2023-04-03T04:03:02;3.00;99.90
5280;DHT22;2663;53.588;10.010;2023-04-03T04:05:28;2.90;99.90
5280;DHT22;2663;53.588;10.010;2023-04-03T04:07:55;2.90;99.90
5280;DHT22;2663;53.588;10.010;2023-04-03T04:10:22;2.90;99.90
5280;DHT22;2663;53.588;10.010;2023-04-03T04:12:48;2.90;99.90
5280;DHT22;2663;53.588;10.010;2023-04-03T04:15:17;2.90;99.90
5280;DHT22;2663;53.588;10.010;2023-04-03T04:17:44;4.00;99.90
5280;DHT22;2663;53.588;10.010;2023-04-03T04:20:11;2.80;99.90
5280;DHT22;2663;53.588;10.010;2023-04-03T04:22:38;2.80;99.90
5280;DHT22;2663;53.588;10.010;2023-04-03T04:25:05;2.80;99.90
5280;DHT22;2663;53.588;10.010;2023-04-03T04:27:32;2.70;99.90
5280;DHT22;2663;53.588;10.010;2023-04-03T04:29:58;2.80;99.90
5280;DHT22;2663;53.588;10.010;2023-04-03T04:32:25;2.70;99.90
5280;DHT22;2663;53.588;10.010;2023-04-03T04:34:52;2.70;99.90
5280;DHT22;2663;53.588;10.010;2023-04-03T04:37:19;2.70;99.90
5280;DHT22;2663;53.588;10.010;2023-04-03T04:39:45;2.70;99.90
5280;DHT22;2663;53.588;10.010;2023-04-03T04:42:12;2.70;99.90
5280;DHT22;2663;53.588;10.010;2023-04-03T04:44:42;2.70;99.90
5280;DHT22;2663;53.588;10.010;2023-04-03T04:47:08;2.60;99.90
5280;DHT22;2663;53.588;10.010;2023-04-03T04:49:35;2.70;99.90
5280;DHT22;2663;53.588;10.010;2023-04-03T04:52:02;2.50;99.90
5280;DHT22;2663;53.588;10.010;2023-04-03T04:54:29;2.70;99.90
5280;DHT22;2663;53.588;10.010;2023-04-03T04:56:55;2.70;99.90
5280;DHT22;2663;53.588;10.010;2023-04-03T04:59:22;2.70;99.90
5280;DHT22;2663;53.588;10.010;2023-04-03T05:01:49;2.60;99.90
5280;DHT22;2663;53.588;10.010;2023-04-03T05:04:16;2.60;99.90
5280;DHT22;2663;53.588;10.010;2023-04-03T05:06:43;2.60;99.90
5280;DHT22;2663;53.588;10.010;2023-04-03T05:09:09;2.70;99.90
5280;DHT22;2663;53.588;10.010;2023-04-03T05:11:36;2.70;99.90
5280;DHT22;2663;53.588;10.010;2023-04-03T05:14:03;2.70;99.90
5280;DHT22;2663;53.588;10.010;2023-04-03T05:16:33;2.80;99.90
5280;DHT22;2663;53.588;10.010;2023-04-03T05:19:00;2.70;99.90
5280;DHT22;2663;53.588;10.010;2023-04-03T05:21:26;2.70;99.90
5280;DHT22;2663;53.588;10.010;2023-04-03T05:23:55;2.80;99.90
5280;DHT22;2663;53.588;10.010;2023-04-03T05:26:22;2.80;99.90
5280;DHT22;2663;53.588;10.010;2023-04-03T05:28:49;2.80;99.90
5280;DHT22;2663;53.588;10.010;2023-04-03T05:31:15;2.80;99.90
5280;DHT22;2663;53.588;10.010;2023-04-03T05:33:42;2.80;99.90
5280;DHT22;2663;53.588;10.010;2023-04-03T05:36:09;2.80;99.90
5280;DHT22;2663;53.588;10.010;2023-04-03T05:38:36;2.80;99.90
5280;DHT22;2663;53.588;10.010;2023-04-03T05:41:03;2.90;99.90
5280;DHT22;2663;53.588;10.010;2023-04-03T05:43:29;2.90;99.90
5280;DHT22;2663;53.588;10.010;2023-04-03T05:45:56;2.90;99.90
5280;DHT22;2663;53.588;10.010;2023-04-03T05:48:23;3.10;99.90
5280;DHT22;2663;53.588;10.010;2023-04-03T05:50:49;3.40;99.90
5280;DHT22;2663;53.588;10.010;2023-04-03T05:53:20;3.90;99.90
5280;DHT22;2663;53.588;10.010;2023-04-03T05:55:48;4.20;99.90
5280;DHT22;2663;53.588;10.010;2023-04-03T05:58:14;4.50;99.90
5280;DHT22;2663;53.588;10.010;2023-04-03T06:00:41;4.30;99.90
5280;DHT22;2663;53.588;10.010;2023-04-03T06:03:08;5.10;99.90
5280;DHT22;2663;53.588;10.010;2023-04-03T06:05:35;3.90;99.90
5280;DHT22;2663;53.588;10.010;2023-04-03T06:08:03;3.80;99.90
5280;DHT22;2663;53.588;10.010;2023-04-03T06:10:30;3.70;99.90
5280;DHT22;2663;53.588;10.010;2023-04-03T06:12:57;3.70;99.90
5280;DHT22;2663;53.588;10.010;2023-04-03T06:15:23;3.70;99.90
5280;DHT22;2663;53.588;10.010;2023-04-03T06:17:51;3.80;99.90
5280;DHT22;2663;53.588;10.010;2023-04-03T06:20:17;4.00;99.90
5280;DHT22;2663;53.588;10.010;2023-04-03T06:22:44;4.00;99.90
5280;DHT22;2663;53.588;10.010;2023-04-03T06:25:11;4.10;99.90
5280;DHT22;2663;53.588;10.010;2023-04-03T06:27:38;5.20;99.90
5280;DHT22;2663;53.588;10.010;2023-04-03T06:30:06;4.20;99.90
5280;DHT22;2663;53.588;10.010;2023-04-03T06:32:33;4.30;99.90
5280;DHT22;2663;53.588;10.010;2023-04-03T06:35:00;4.30;99.90
5280;DHT22;2663;53.588;10.010;2023-04-03T06:37:27;4.40;99.90
5280;DHT22;2663;53.588;10.010;2023-04-03T06:39:55;4.50;99.90
5280;DHT22;2663;53.588;10.010;2023-04-03T06:42:22;6.10;99.90
5280;DHT22;2663;53.588;10.010;2023-04-03T06:44:49;4.70;99.90
5280;DHT22;2663;53.588;10.010;2023-04-03T06:47:16;4.90;99.90
5280;DHT22;2663;53.588;10.010;2023-04-03T06:49:43;4.90;99.90
5280;DHT22;2663;53.588;10.010;2023-04-03T06:52:10;5.10;99.90
5280;DHT22;2663;53.588;10.010;2023-04-03T06:54:40;5.00;99.90
5280;DHT22;2663;53.588;10.010;2023-04-03T06:57:07;5.20;99.90
5280;DHT22;2663;53.588;10.010;2023-04-03T06:59:35;5.40;99.90
5280;DHT22;2663;53.588;10.010;2023-04-03T07:02:02;5.50;99.90
5280;DHT22;2663;53.588;10.010;2023-04-03T07:04:29;5.50;99.90
5280;DHT22;2663;53.588;10.010;2023-04-03T07:06:56;5.60;99.90
5280;DHT22;2663;53.588;10.010;2023-04-03T07:09:23;5.70;99.90
5280;DHT22;2663;53.588;10.010;2023-04-03T07:11:49;5.60;99.90
5280;DHT22;2663;53.588;10.010;2023-04-03T07:14:16;5.70;99.90
5280;DHT22;2663;53.588;10.010;2023-04-03T07:16:43;5.70;99.90
5280;DHT22;2663;53.588;10.010;2023-04-03T07:19:09;5.70;99.90
5280;DHT22;2663;53.588;10.010;2023-04-03T07:21:36;5.60;99.90
5280;DHT22;2663;53.588;10.010;2023-04-03T07:24:03;5.60;99.90
5280;DHT22;2663;53.588;10.010;2023-04-03T07:26:30;5.70;99.90
5280;DHT22;2663;53.588;10.010;2023-04-03T07:28:57;5.80;99.90
5280;DHT22;2663;53.588;10.010;2023-04-03T07:31:24;5.90;99.90
5280;DHT22;2663;53.588;10.010;2023-04-03T07:33:51;5.90;99.90
5280;DHT22;2663;53.588;10.010;2023-04-03T07:36:21;6.00;99.90
5280;DHT22;2663;53.588;10.010;2023-04-03T07:38:48;6.10;99.90
5280;DHT22;2663;53.588;10.010;2023-04-03T07:41:17;6.00;99.90
5280;DHT22;2663;53.588;10.010;2023-04-03T07:43:45;6.00;99.90
5280;DHT22;2663;53.588;10.010;2023-04-03T07:46:12;6.00;99.90
5280;DHT22;2663;53.588;10.010;2023-04-03T07:48:39;6.00;99.90
5280;DHT22;2663;53.588;10.010;2023-04-03T07:51:06;5.90;99.90
5280;DHT22;2663;53.588;10.010;2023-04-03T07:53:33;6.00;99.90
5280;DHT22;2663;53.588;10.010;2023-04-03T07:56:00;6.20;99.90
5280;DHT22;2663;53.588;10.010;2023-04-03T07:58:29;6.50;99.90
5280;DHT22;2663;53.588;10.010;2023-04-03T08:00:56;6.70;99.90
5280;DHT22;2663;53.588;10.010;2023-04-03T08:03:23;6.80;99.90
5280;DHT22;2663;53.588;10.010;2023-04-03T08:05:50;6.80;99.90
5280;DHT22;2663;53.588;10.010;2023-04-03T08:08:20;6.70;99.90
5280;DHT22;2663;53.588;10.010;2023-04-03T08:10:52;6.60;99.90
5280;DHT22;2663;53.588;10.010;2023-04-03T08:13:20;6.60;99.90
5280;DHT22;2663;53.588;10.010;2023-04-03T08:15:47;6.90;99.90
5280;DHT22;2663;53.588;10.010;2023-04-03T08:18:15;6.80;99.90
5280;DHT22;2663;53.588;10.010;2023-04-03T08:20:43;7.00;99.90
5280;DHT22;2663;53.588;10.010;2023-04-03T08:23:10;7.00;99.90
5280;DHT22;2663;53.588;10.010;2023-04-03T08:25:40;7.10;99.90
5280;DHT22;2663;53.588;10.010;2023-04-03T08:28:09;7.00;99.90
5280;DHT22;2663;53.588;10.010;2023-04-03T08:30:39;7.10;99.90
5280;DHT22;2663;53.588;10.010;2023-04-03T08:33:06;8.40;99.90
5280;DHT22;2663;53.588;10.010;2023-04-03T08:35:38;7.30;99.90
5280;DHT22;2663;53.588;10.010;2023-04-03T08:38:06;7.10;99.90
5280;DHT22;2663;53.588;10.010;2023-04-03T08:40:33;7.00;99.90
5280;DHT22;2663;53.588;10.010;2023-04-03T08:43:20;7.10;99.90
5280;DHT22;2663;53.588;10.010;2023-04-03T08:45:53;7.20;99.40
5280;DHT22;2663;53.588;10.010;2023-04-03T08:48:27;7.50;98.90
5280;DHT22;2663;53.588;10.010;2023-04-03T08:50:57;7.70;99.20
5280;DHT22;2663;53.588;10.010;2023-04-03T08:53:32;7.50;98.50
5280;DHT22;2663;53.588;10.010;2023-04-03T08:56:08;8.50;99.10
5280;DHT22;2663;53.588;10.010;2023-04-03T08:58:58;7.20;99.10
5280;DHT22;2663;53.588;10.010;2023-04-03T09:01:34;7.40;99.10
5280;DHT22;2663;53.588;10.010;2023-04-03T09:04:03;7.50;98.20
5280;DHT22;2663;53.588;10.010;2023-04-03T09:06:36;7.60;98.50
5280;DHT22;2663;53.588;10.010;2023-04-03T09:11:55;7.40;97.40
5280;DHT22;2663;53.588;10.010;2023-04-03T09:14:41;7.50;97.60
5280;DHT22;2663;53.588;10.010;2023-04-03T09:19:47;7.30;96.60
5280;DHT22;2663;53.588;10.010;2023-04-03T09:22:21;7.40;95.80
5280;DHT22;2663;53.588;10.010;2023-04-03T09:27:24;7.50;95.70
5280;DHT22;2663;53.588;10.010;2023-04-03T09:29:53;7.50;94.60
5280;DHT22;2663;53.588;10.010;2023-04-03T09:34:54;7.60;94.90
5280;DHT22;2663;53.588;10.010;2023-04-03T09:38:15;7.60;94.20
5280;DHT22;2663;53.588;10.010;2023-04-03T09:41:05;7.80;93.80
5280;DHT22;2663;53.588;10.010;2023-04-03T09:43:34;8.00;93.60
5280;DHT22;2663;53.588;10.010;2023-04-03T09:48:52;8.40;92.50
5280;DHT22;2663;53.588;10.010;2023-04-03T09:51:34;8.40;92.60
5280;DHT22;2663;53.588;10.010;2023-04-03T09:54:32;8.40;92.50
5280;DHT22;2663;53.588;10.010;2023-04-03T09:57:07;8.30;91.40
5280;DHT22;2663;53.588;10.010;2023-04-03T09:59:34;8.00;91.40
5280;DHT22;2663;53.588;10.010;2023-04-03T10:02:22;7.80;91.40
5280;DHT22;2663;53.588;10.010;2023-04-03T10:04:50;8.00;90.80
5280;DHT22;2663;53.588;10.010;2023-04-03T10:07:36;8.10;90.80
5280;DHT22;2663;53.588;10.010;2023-04-03T10:10:20;8.20;89.40
5280;DHT22;2663;53.588;10.010;2023-04-03T10:13:07;8.30;87.20
5280;DHT22;2663;53.588;10.010;2023-04-03T10:15:46;8.50;89.20
5280;DHT22;2663;53.588;10.010;2023-04-03T10:21:08;8.40;86.70
5280;DHT22;2663;53.588;10.010;2023-04-03T10:23:58;8.50;85.10
5280;DHT22;2663;53.588;10.010;2023-04-03T10:26:49;8.50;83.90
5280;DHT22;2663;53.588;10.010;2023-04-03T10:29:36;8.50;85.10
5280;DHT22;2663;53.588;10.010;2023-04-03T10:35:28;8.50;83.90
5280;DHT22;2663;53.588;10.010;2023-04-03T10:38:03;8.70;81.00
5280;DHT22;2663;53.588;10.010;2023-04-03T10:48:39;8.70;83.70
5280;DHT22;2663;53.588;10.010;2023-04-03T10:51:27;8.90;82.60
5280;DHT22;2663;53.588;10.010;2023-04-03T10:54:11;9.00;82.40
5280;DHT22;2663;53.588;10.010;2023-04-03T10:56:42;9.00;82.00
5280;DHT22;2663;53.588;10.010;2023-04-03T11:01:49;8.70;84.70
5280;DHT22;2663;53.588;10.010;2023-04-03T11:04:19;8.90;84.20
5280;DHT22;2663;53.588;10.010;2023-04-03T11:06:57;8.90;84.20
5280;DHT22;2663;53.588;10.010;2023-04-03T11:09:27;9.20;84.70
5280;DHT22;2663;53.588;10.010;2023-04-03T11:12:00;9.30;84.30
5280;DHT22;2663;53.588;10.010;2023-04-03T11:14:30;9.30;85.00
5280;DHT22;2663;53.588;10.010;2023-04-03T11:22:29;9.00;83.70
5280;DHT22;2663;53.588;10.010;2023-04-03T11:33:10;8.20;86.60
5280;DHT22;2663;53.588;10.010;2023-04-03T11:35:47;8.20;87.80
5280;DHT22;2663;53.588;10.010;2023-04-03T11:38:23;8.30;87.90
5280;DHT22;2663;53.588;10.010;2023-04-03T11:40:54;8.20;86.10
5280;DHT22;2663;53.588;10.010;2023-04-03T11:43:24;8.30;86.30
5280;DHT22;2663;53.588;10.010;2023-04-03T11:51:43;8.20;89.40
5280;DHT22;2663;53.588;10.010;2023-04-03T11:53:47;8.30;89.50
5280;DHT22;2663;53.588;10.010;2023-04-03T12:01:55;8.80;86.30
5280;DHT22;2663;53.588;10.010;2023-04-03T12:04:25;8.90;86.40
5280;DHT22;2663;53.588;10.010;2023-04-03T12:07:12;8.90;84.50
5280;DHT22;2663;53.588;10.010;2023-04-03T12:12:38;9.20;88.20
5280;DHT22;2663;53.588;10.010;2023-04-03T12:15:23;9.50;81.70
5280;DHT22;2663;53.588;10.010;2023-04-03T12:17:50;9.60;81.60
5280;DHT22;2663;53.588;10.010;2023-04-03T12:20:57;9.80;82.40
5280;DHT22;2663;53.588;10.010;2023-04-03T12:23:24;9.40;81.00
5280;DHT22;2663;53.588;10.010;2023-04-03T12:25:51;9.50;82.40
5280;DHT22;2663;53.588;10.010;2023-04-03T12:28:18;9.60;82.20
5280;DHT22;2663;53.588;10.010;2023-04-03T12:30:45;9.80;81.70
5280;DHT22;2663;53.588;10.010;2023-04-03T12:33:27;10.10;81.00
5280;DHT22;2663;53.588;10.010;2023-04-03T12:36:10;9.40;79.70
5280;DHT22;2663;53.588;10.010;2023-04-03T12:39:00;9.60;80.10
5280;DHT22;2663;53.588;10.010;2023-04-03T12:42:10;9.90;81.20
5280;DHT22;2663;53.588;10.010;2023-04-03T12:44:55;9.60;80.30
5280;DHT22;2663;53.588;10.010;2023-04-03T12:47:31;9.40;80.10
5280;DHT22;2663;53.588;10.010;2023-04-03T12:50:00;9.10;81.30
5280;DHT22;2663;53.588;10.010;2023-04-03T12:52:41;8.80;78.70
5280;DHT22;2663;53.588;10.010;2023-04-03T12:55:15;8.60;79.10
5280;DHT22;2663;53.588;10.010;2023-04-03T12:57:43;8.60;80.90
5280;DHT22;2663;53.588;10.010;2023-04-03T13:00:27;8.90;81.30
5280;DHT22;2663;53.588;10.010;2023-04-03T13:02:54;8.90;79.80
5280;DHT22;2663;53.588;10.010;2023-04-03T13:05:22;8.70;80.50
5280;DHT22;2663;53.588;10.010;2023-04-03T13:07:58;8.90;80.40
5280;DHT22;2663;53.588;10.010;2023-04-03T13:10:25;9.00;81.00
5280;DHT22;2663;53.588;10.010;2023-04-03T13:13:07;9.30;80.70
5280;DHT22;2663;53.588;10.010;2023-04-03T13:15:46;9.40;79.50
5280;DHT22;2663;53.588;10.010;2023-04-03T13:21:07;9.30;79.00
5280;DHT22;2663;53.588;10.010;2023-04-03T13:23:37;9.30;79.70
5280;DHT22;2663;53.588;10.010;2023-04-03T13:26:05;9.10;79.50
5280;DHT22;2663;53.588;10.010;2023-04-03T13:28:33;8.80;79.90
5280;DHT22;2663;53.588;10.010;2023-04-03T13:33:30;10.20;93.00
5280;DHT22;2663;53.588;10.010;2023-04-03T13:36:08;9.90;79.70
5280;DHT22;2663;53.588;10.010;2023-04-03T13:38:35;9.70;80.30
5280;DHT22;2663;53.588;10.010;2023-04-03T13:41:20;9.50;78.10
5280;DHT22;2663;53.588;10.010;2023-04-03T13:43:48;9.50;80.10
5280;DHT22;2663;53.588;10.010;2023-04-03T13:48:46;9.20;79.80
5280;DHT22;2663;53.588;10.010;2023-04-03T13:53:57;9.70;79.90
5280;DHT22;2663;53.588;10.010;2023-04-03T13:56:34;9.60;75.70
5280;DHT22;2663;53.588;10.010;2023-04-03T13:59:23;9.60;76.30
5280;DHT22;2663;53.588;10.010;2023-04-03T14:04:26;9.60;74.80
5280;DHT22;2663;53.588;10.010;2023-04-03T14:06:54;9.40;76.50
5280;DHT22;2663;53.588;10.010;2023-04-03T14:09:23;9.50;76.10
5280;DHT22;2663;53.588;10.010;2023-04-03T14:11:52;9.40;76.00
5280;DHT22;2663;53.588;10.010;2023-04-03T14:14:22;9.80;76.70
5280;DHT22;2663;53.588;10.010;2023-04-03T14:16:58;10.00;74.10
5280;DHT22;2663;53.588;10.010;2023-04-03T14:19:30;9.80;73.40
5280;DHT22;2663;53.588;10.010;2023-04-03T14:21:58;10.10;76.40
5280;DHT22;2663;53.588;10.010;2023-04-03T14:24:25;10.30;75.60
5280;DHT22;2663;53.588;10.010;2023-04-03T14:26:54;10.40;74.70
5280;DHT22;2663;53.588;10.010;2023-04-03T14:29:22;10.40;75.60
5280;DHT22;2663;53.588;10.010;2023-04-03T14:31:49;10.50;75.10
5280;DHT22;2663;53.588;10.010;2023-04-03T14:34:26;10.60;74.70
5280;DHT22;2663;53.588;10.010;2023-04-03T14:36:52;10.90;73.60
5280;DHT22;2663;53.588;10.010;2023-04-03T14:39:19;11.00;74.60
5280;DHT22;2663;53.588;10.010;2023-04-03T14:41:46;11.00;73.50
5280;DHT22;2663;53.588;10.010;2023-04-03T14:44:13;10.80;74.40
5280;DHT22;2663;53.588;10.010;2023-04-03T14:46:43;10.40;74.20
5280;DHT22;2663;53.588;10.010;2023-04-03T14:49:26;11.10;74.00
5280;DHT22;2663;53.588;10.010;2023-04-03T14:51:55;11.60;75.70
5280;DHT22;2663;53.588;10.010;2023-04-03T14:54:23;11.90;72.50
5280;DHT22;2663;53.588;10.010;2023-04-03T14:56:55;11.50;72.10
5280;DHT22;2663;53.588;10.010;2023-04-03T14:59:23;11.60;72.60
5280;DHT22;2663;53.588;10.010;2023-04-03T15:01:50;11.80;72.00
5280;DHT22;2663;53.588;10.010;2023-04-03T15:04:19;11.60;71.90
5280;DHT22;2663;53.588;10.010;2023-04-03T15:06:47;11.50;72.30
5280;DHT22;2663;53.588;10.010;2023-04-03T15:09:25;10.90;73.00
5280;DHT22;2663;53.588;10.010;2023-04-03T15:11:53;10.50;74.80
5280;DHT22;2663;53.588;10.010;2023-04-03T15:14:21;10.00;75.60
5280;DHT22;2663;53.588;10.010;2023-04-03T15:17:15;9.90;76.20
5280;DHT22;2663;53.588;10.010;2023-04-03T15:19:42;9.60;76.60
5280;DHT22;2663;53.588;10.010;2023-04-03T15:22:17;9.30;77.00
5280;DHT22;2663;53.588;10.010;2023-04-03T15:24:45;8.50;77.30
5280;DHT22;2663;53.588;10.010;2023-04-03T15:27:13;9.50;78.20
5280;DHT22;2663;53.588;10.010;2023-04-03T15:29:40;9.30;78.90
5280;DHT22;2663;53.588;10.010;2023-04-03T15:32:08;9.40;79.50
5280;DHT22;2663;53.588;10.010;2023-04-03T15:34:36;9.50;79.10
5280;DHT22;2663;53.588;10.010;2023-04-03T15:37:03;9.40;80.10
5280;DHT22;2663;53.588;10.010;2023-04-03T15:39:29;9.40;80.90
5280;DHT22;2663;53.588;10.010;2023-04-03T15:41:56;9.40;81.60
5280;DHT22;2663;53.588;10.010;2023-04-03T15:44:26;9.40;80.60
5280;DHT22;2663;53.588;10.010;2023-04-03T15:46:52;9.40;79.80
5280;DHT22;2663;53.588;10.010;2023-04-03T15:49:19;9.30;79.80
5280;DHT22;2663;53.588;10.010;2023-04-03T15:51:47;8.90;80.10
5280;DHT22;2663;53.588;10.010;2023-04-03T15:54:14;8.50;81.10
5280;DHT22;2663;53.588;10.010;2023-04-03T15:56:41;8.30;82.00
5280;DHT22;2663;53.588;10.010;2023-04-03T15:59:08;8.30;81.70
5280;DHT22;2663;53.588;10.010;2023-04-03T16:01:36;8.60;81.80
5280;DHT22;2663;53.588;10.010;2023-04-03T16:04:04;8.70;81.70
5280;DHT22;2663;53.588;10.010;2023-04-03T16:06:31;8.60;81.90
5280;DHT22;2663;53.588;10.010;2023-04-03T16:08:59;7.90;82.10
5280;DHT22;2663;53.588;10.010;2023-04-03T16:11:27;8.60;82.10
5280;DHT22;2663;53.588;10.010;2023-04-03T16:13:54;8.60;82.50
5280;DHT22;2663;53.588;10.010;2023-04-03T16:16:21;8.60;83.10
5280;DHT22;2663;53.588;10.010;2023-04-03T16:18:48;8.60;83.40
5280;DHT22;2663;53.588;10.010;2023-04-03T16:21:16;8.30;84.50
5280;DHT22;2663;53.588;10.010;2023-04-03T16:23:44;8.20;85.40
5280;DHT22;2663;53.588;10.010;2023-04-03T16:26:11;8.10;85.40
5280;DHT22;2663;53.588;10.010;2023-04-03T16:28:37;8.10;85.70
5280;DHT22;2663;53.588;10.010;2023-04-03T16:31:05;8.30;85.70
5280;DHT22;2663;53.588;10.010;2023-04-03T16:33:32;8.50;85.40
5280;DHT22;2663;53.588;10.010;2023-04-03T16:35:59;8.50;85.00
5280;DHT22;2663;53.588;10.010;2023-04-03T16:38:26;8.40;84.90
5280;DHT22;2663;53.588;10.010;2023-04-03T16:40:53;8.40;85.30
5280;DHT22;2663;53.588;10.010;2023-04-03T16:43:23;8.20;86.30
5280;DHT22;2663;53.588;10.010;2023-04-03T16:45:49;8.10;87.10
5280;DHT22;2663;53.588;10.010;2023-04-03T16:48:16;7.90;87.70
5280;DHT22;2663;53.588;10.010;2023-04-03T16:50:46;7.70;88.70
5280;DHT22;2663;53.588;10.010;2023-04-03T16:53:14;7.70;89.00
5280;DHT22;2663;53.588;10.010;2023-04-03T16:55:41;7.90;97.40
5280;DHT22;2663;53.588;10.010;2023-04-03T16:58:08;8.40;99.70
5280;DHT22;2663;53.588;10.010;2023-04-03T17:00:36;9.00;98.30
5280;DHT22;2663;53.588;10.010;2023-04-03T17:03:03;9.40;98.60
5280;DHT22;2663;53.588;10.010;2023-04-03T17:05:30;9.60;94.20
5280;DHT22;2663;53.588;10.010;2023-04-03T17:07:58;9.40;95.60
5280;DHT22;2663;53.588;10.010;2023-04-03T17:10:25;9.60;99.30
5280;DHT22;2663;53.588;10.010;2023-04-03T17:12:52;9.90;95.80
5280;DHT22;2663;53.588;10.010;2023-04-03T17:15:19;10.00;96.90
5280;DHT22;2663;53.588;10.010;2023-04-03T17:17:51;10.00;98.00
5280;DHT22;2663;53.588;10.010;2023-04-03T17:20:18;10.00;93.40
5280;DHT22;2663;53.588;10.010;2023-04-03T17:22:45;9.90;97.80
5280;DHT22;2663;53.588;10.010;2023-04-03T17:25:11;9.60;91.30
5280;DHT22;2663;53.588;10.010;2023-04-03T17:27:39;8.80;91.20
5280;DHT22;2663;53.588;10.010;2023-04-03T17:30:06;8.30;91.90
5280;DHT22;2663;53.588;10.010;2023-04-03T17:32:34;7.90;92.50
5280;DHT22;2663;53.588;10.010;2023-04-03T17:35:00;7.60;93.10
5280;DHT22;2663;53.588;10.010;2023-04-03T17:37:27;7.50;93.40